2M8 weather

Charles W. Baker Airport
Millington, Tennessee, United States

Public forecast

Using degrees Fahrenheit for public forecast. Weather courtesy of forecast.io.

Closest aviation weather report (METAR) to Charles W. Baker Airport

Closest report is Millington-Memphis Airport, 5.5 nm (10.3 km) NNE. Retrieved 2019/10/17 20:50 UTC (34 minutes ago):

KNQA 172050Z 35005G11KT 10SM CLR 17/06 A3002

Closest aviation forecast (TAF) to Charles W. Baker Airport

Closest forecast is Memphis International Airport, 14.4 nm (26.6 km) S. Retrieved 2019/10/17 18:24 UTC (3 hours ago):

TAF KMEM 171722Z 1718/1824 24004KT P6SM FEW100 SCT250 FM171900 34005KT P6SM SCT250 FM180200 07004KT P6SM BKN250 FM181500 11007KT P6SM SCT250